sensor_id;sensor_type;location;lat;lon;timestamp;P1;durP1;ratioP1;P2;durP2;ratioP2
24567;SDS011;12731;52.182;8.716;2022-07-03T00:00:31;4.72;;;1.38;;
24567;SDS011;12731;52.182;8.716;2022-07-03T00:02:57;6.20;;;1.50;;
24567;SDS011;12731;52.182;8.716;2022-07-03T00:05:24;2.65;;;1.08;;
24567;SDS011;12731;52.182;8.716;2022-07-03T00:07:51;2.85;;;1.27;;
24567;SDS011;12731;52.182;8.716;2022-07-03T00:10:18;3.33;;;1.25;;
24567;SDS011;12731;52.182;8.716;2022-07-03T00:12:44;2.00;;;1.30;;
24567;SDS011;12731;52.182;8.716;2022-07-03T00:15:11;2.55;;;1.10;;
24567;SDS011;12731;52.182;8.716;2022-07-03T00:17:37;1.95;;;1.30;;
24567;SDS011;12731;52.182;8.716;2022-07-03T00:20:04;2.75;;;1.30;;
24567;SDS011;12731;52.182;8.716;2022-07-03T00:22:32;2.08;;;1.20;;
24567;SDS011;12731;52.182;8.716;2022-07-03T00:25:01;3.60;;;1.20;;
24567;SDS011;12731;52.182;8.716;2022-07-03T00:27:29;3.28;;;1.63;;
24567;SDS011;12731;52.182;8.716;2022-07-03T00:30:01;2.08;;;1.52;;
24567;SDS011;12731;52.182;8.716;2022-07-03T00:32:29;5.15;;;1.70;;
24567;SDS011;12731;52.182;8.716;2022-07-03T00:34:56;2.08;;;1.60;;
24567;SDS011;12731;52.182;8.716;2022-07-03T00:37:23;3.08;;;1.80;;
24567;SDS011;12731;52.182;8.716;2022-07-03T00:39:50;2.72;;;1.65;;
24567;SDS011;12731;52.182;8.716;2022-07-03T00:42:17;2.75;;;1.70;;
24567;SDS011;12731;52.182;8.716;2022-07-03T00:47:12;3.33;;;2.08;;
24567;SDS011;12731;52.182;8.716;2022-07-03T00:49:40;3.22;;;1.90;;
24567;SDS011;12731;52.182;8.716;2022-07-03T00:52:06;3.60;;;2.03;;
24567;SDS011;12731;52.182;8.716;2022-07-03T00:54:35;2.78;;;1.90;;
24567;SDS011;12731;52.182;8.716;2022-07-03T00:57:02;2.95;;;2.25;;
24567;SDS011;12731;52.182;8.716;2022-07-03T00:59:29;3.25;;;2.20;;
24567;SDS011;12731;52.182;8.716;2022-07-03T01:01:59;2.00;;;1.80;;
24567;SDS011;12731;52.182;8.716;2022-07-03T01:07:25;2.40;;;2.10;;
24567;SDS011;12731;52.182;8.716;2022-07-03T01:10:04;2.10;;;1.90;;
24567;SDS011;12731;52.182;8.716;2022-07-03T01:12:51;4.30;;;2.25;;
24567;SDS011;12731;52.182;8.716;2022-07-03T01:18:09;3.65;;;1.90;;
24567;SDS011;12731;52.182;8.716;2022-07-03T01:20:40;3.42;;;1.85;;
24567;SDS011;12731;52.182;8.716;2022-07-03T01:23:12;3.17;;;1.60;;
24567;SDS011;12731;52.182;8.716;2022-07-03T01:25:56;2.92;;;1.65;;
24567;SDS011;12731;52.182;8.716;2022-07-03T01:28:28;2.78;;;1.40;;
24567;SDS011;12731;52.182;8.716;2022-07-03T01:30:54;2.85;;;1.60;;
24567;SDS011;12731;52.182;8.716;2022-07-03T01:33:22;2.60;;;1.63;;
24567;SDS011;12731;52.182;8.716;2022-07-03T01:36:06;2.17;;;1.33;;
24567;SDS011;12731;52.182;8.716;2022-07-03T01:38:35;2.80;;;1.63;;
24567;SDS011;12731;52.182;8.716;2022-07-03T01:41:07;2.47;;;1.70;;
24567;SDS011;12731;52.182;8.716;2022-07-03T01:43:38;4.32;;;1.52;;
24567;SDS011;12731;52.182;8.716;2022-07-03T01:46:19;3.42;;;1.70;;
24567;SDS011;12731;52.182;8.716;2022-07-03T01:48:47;3.28;;;1.92;;
24567;SDS011;12731;52.182;8.716;2022-07-03T01:51:15;2.28;;;2.08;;
24567;SDS011;12731;52.182;8.716;2022-07-03T01:53:44;3.42;;;2.35;;
24567;SDS011;12731;52.182;8.716;2022-07-03T01:56:13;2.63;;;2.35;;
24567;SDS011;12731;52.182;8.716;2022-07-03T01:58:40;2.63;;;2.25;;
24567;SDS011;12731;52.182;8.716;2022-07-03T02:04:15;3.40;;;2.60;;
24567;SDS011;12731;52.182;8.716;2022-07-03T02:06:50;3.15;;;2.28;;
24567;SDS011;12731;52.182;8.716;2022-07-03T02:09:40;2.70;;;2.23;;
24567;SDS011;12731;52.182;8.716;2022-07-03T02:12:11;3.80;;;2.70;;
24567;SDS011;12731;52.182;8.716;2022-07-03T02:14:39;3.40;;;2.75;;
24567;SDS011;12731;52.182;8.716;2022-07-03T02:17:11;4.72;;;2.75;;
24567;SDS011;12731;52.182;8.716;2022-07-03T02:20:02;4.00;;;2.80;;
24567;SDS011;12731;52.182;8.716;2022-07-03T02:22:34;4.53;;;2.30;;
24567;SDS011;12731;52.182;8.716;2022-07-03T02:25:54;2.63;;;1.88;;
24567;SDS011;12731;52.182;8.716;2022-07-03T02:28:10;2.40;;;1.60;;
24567;SDS011;12731;52.182;8.716;2022-07-03T02:30:52;2.35;;;1.42;;
24567;SDS011;12731;52.182;8.716;2022-07-03T02:33:24;1.77;;;1.40;;
24567;SDS011;12731;52.182;8.716;2022-07-03T02:35:52;4.00;;;1.65;;
24567;SDS011;12731;52.182;8.716;2022-07-03T02:38:19;1.77;;;1.42;;
24567;SDS011;12731;52.182;8.716;2022-07-03T02:40:54;3.45;;;2.22;;
24567;SDS011;12731;52.182;8.716;2022-07-03T02:46:34;3.45;;;2.75;;
24567;SDS011;12731;52.182;8.716;2022-07-03T02:51:50;2.97;;;2.65;;
24567;SDS011;12731;52.182;8.716;2022-07-03T02:54:23;3.00;;;2.67;;
24567;SDS011;12731;52.182;8.716;2022-07-03T02:56:57;4.13;;;2.45;;
24567;SDS011;12731;52.182;8.716;2022-07-03T03:02:23;5.00;;;3.20;;
24567;SDS011;12731;52.182;8.716;2022-07-03T03:05:06;6.20;;;3.22;;
24567;SDS011;12731;52.182;8.716;2022-07-03T03:10:40;5.95;;;3.75;;
24567;SDS011;12731;52.182;8.716;2022-07-03T03:13:11;4.10;;;3.53;;
24567;SDS011;12731;52.182;8.716;2022-07-03T03:15:43;4.40;;;3.88;;
24567;SDS011;12731;52.182;8.716;2022-07-03T03:18:11;4.63;;;3.95;;
24567;SDS011;12731;52.182;8.716;2022-07-03T03:20:38;4.13;;;3.72;;
24567;SDS011;12731;52.182;8.716;2022-07-03T03:23:10;5.68;;;3.55;;
24567;SDS011;12731;52.182;8.716;2022-07-03T03:25:42;4.20;;;3.60;;
24567;SDS011;12731;52.182;8.716;2022-07-03T03:28:09;5.95;;;3.72;;
24567;SDS011;12731;52.182;8.716;2022-07-03T03:30:36;6.93;;;3.63;;
24567;SDS011;12731;52.182;8.716;2022-07-03T03:33:04;3.53;;;3.22;;
24567;SDS011;12731;52.182;8.716;2022-07-03T03:35:35;5.88;;;3.50;;
24567;SDS011;12731;52.182;8.716;2022-07-03T03:38:02;3.63;;;3.20;;
24567;SDS011;12731;52.182;8.716;2022-07-03T03:40:30;5.65;;;3.47;;
24567;SDS011;12731;52.182;8.716;2022-07-03T03:42:58;4.07;;;3.67;;
24567;SDS011;12731;52.182;8.716;2022-07-03T03:45:24;5.35;;;3.70;;
24567;SDS011;12731;52.182;8.716;2022-07-03T03:47:51;4.75;;;3.60;;
24567;SDS011;12731;52.182;8.716;2022-07-03T03:50:18;5.53;;;3.78;;
24567;SDS011;12731;52.182;8.716;2022-07-03T03:52:44;4.80;;;3.92;;
24567;SDS011;12731;52.182;8.716;2022-07-03T03:55:11;4.85;;;3.92;;
24567;SDS011;12731;52.182;8.716;2022-07-03T03:57:37;4.53;;;3.72;;
24567;SDS011;12731;52.182;8.716;2022-07-03T04:00:04;5.07;;;3.85;;
24567;SDS011;12731;52.182;8.716;2022-07-03T04:02:31;6.30;;;3.80;;
24567;SDS011;12731;52.182;8.716;2022-07-03T04:04:58;5.63;;;3.60;;
24567;SDS011;12731;52.182;8.716;2022-07-03T04:07:25;7.55;;;4.22;;
24567;SDS011;12731;52.182;8.716;2022-07-03T04:09:51;5.10;;;3.58;;
24567;SDS011;12731;52.182;8.716;2022-07-03T04:12:18;4.47;;;3.42;;
24567;SDS011;12731;52.182;8.716;2022-07-03T04:14:44;4.07;;;3.28;;
24567;SDS011;12731;52.182;8.716;2022-07-03T04:17:11;4.38;;;3.10;;
24567;SDS011;12731;52.182;8.716;2022-07-03T04:19:37;4.75;;;2.92;;
24567;SDS011;12731;52.182;8.716;2022-07-03T04:22:04;5.90;;;2.80;;
24567;SDS011;12731;52.182;8.716;2022-07-03T04:24:35;3.75;;;2.47;;
24567;SDS011;12731;52.182;8.716;2022-07-03T04:27:02;3.10;;;2.40;;
24567;SDS011;12731;52.182;8.716;2022-07-03T04:29:29;2.90;;;2.50;;
24567;SDS011;12731;52.182;8.716;2022-07-03T04:31:55;2.58;;;2.10;;
24567;SDS011;12731;52.182;8.716;2022-07-03T04:34:22;2.50;;;2.30;;
24567;SDS011;12731;52.182;8.716;2022-07-03T04:36:48;2.50;;;2.10;;
24567;SDS011;12731;52.182;8.716;2022-07-03T04:39:15;2.53;;;2.10;;
24567;SDS011;12731;52.182;8.716;2022-07-03T04:41:42;4.20;;;2.10;;
24567;SDS011;12731;52.182;8.716;2022-07-03T04:44:08;2.92;;;2.08;;
24567;SDS011;12731;52.182;8.716;2022-07-03T04:46:35;5.22;;;1.90;;
24567;SDS011;12731;52.182;8.716;2022-07-03T04:49:01;2.95;;;2.08;;
24567;SDS011;12731;52.182;8.716;2022-07-03T04:51:28;3.03;;;2.03;;
24567;SDS011;12731;52.182;8.716;2022-07-03T04:53:55;2.20;;;2.00;;
24567;SDS011;12731;52.182;8.716;2022-07-03T04:56:21;1.85;;;1.70;;
24567;SDS011;12731;52.182;8.716;2022-07-03T04:58:48;3.47;;;2.03;;
24567;SDS011;12731;52.182;8.716;2022-07-03T05:01:14;2.63;;;2.00;;
24567;SDS011;12731;52.182;8.716;2022-07-03T05:03:41;2.67;;;1.88;;
24567;SDS011;12731;52.182;8.716;2022-07-03T05:06:07;3.28;;;2.25;;
24567;SDS011;12731;52.182;8.716;2022-07-03T05:08:34;3.08;;;1.98;;
24567;SDS011;12731;52.182;8.716;2022-07-03T05:11:00;2.65;;;1.90;;
24567;SDS011;12731;52.182;8.716;2022-07-03T05:13:27;3.92;;;2.08;;
24567;SDS011;12731;52.182;8.716;2022-07-03T05:15:53;3.63;;;2.00;;
24567;SDS011;12731;52.182;8.716;2022-07-03T05:18:20;3.67;;;2.33;;
24567;SDS011;12731;52.182;8.716;2022-07-03T05:20:47;2.78;;;1.75;;
24567;SDS011;12731;52.182;8.716;2022-07-03T05:23:14;3.42;;;1.90;;
24567;SDS011;12731;52.182;8.716;2022-07-03T05:25:40;4.78;;;1.85;;
24567;SDS011;12731;52.182;8.716;2022-07-03T05:28:07;2.03;;;1.80;;
24567;SDS011;12731;52.182;8.716;2022-07-03T05:30:33;1.92;;;1.73;;
24567;SDS011;12731;52.182;8.716;2022-07-03T05:33:00;3.78;;;1.70;;
24567;SDS011;12731;52.182;8.716;2022-07-03T05:35:26;2.17;;;1.45;;
24567;SDS011;12731;52.182;8.716;2022-07-03T05:37:53;3.97;;;1.60;;
24567;SDS011;12731;52.182;8.716;2022-07-03T05:40:20;4.03;;;1.48;;
24567;SDS011;12731;52.182;8.716;2022-07-03T05:42:46;2.05;;;1.70;;
24567;SDS011;12731;52.182;8.716;2022-07-03T05:45:13;3.83;;;1.50;;
24567;SDS011;12731;52.182;8.716;2022-07-03T05:47:39;4.00;;;1.60;;
24567;SDS011;12731;52.182;8.716;2022-07-03T05:50:06;2.63;;;1.38;;
24567;SDS011;12731;52.182;8.716;2022-07-03T05:52:33;2.28;;;1.52;;
24567;SDS011;12731;52.182;8.716;2022-07-03T05:54:59;1.95;;;1.63;;
24567;SDS011;12731;52.182;8.716;2022-07-03T05:57:26;2.05;;;1.67;;
24567;SDS011;12731;52.182;8.716;2022-07-03T05:59:58;3.35;;;1.67;;
24567;SDS011;12731;52.182;8.716;2022-07-03T06:02:25;1.70;;;1.27;;
24567;SDS011;12731;52.182;8.716;2022-07-03T06:04:52;4.28;;;1.70;;
24567;SDS011;12731;52.182;8.716;2022-07-03T06:07:18;3.33;;;1.60;;
24567;SDS011;12731;52.182;8.716;2022-07-03T06:09:45;4.25;;;1.60;;
24567;SDS011;12731;52.182;8.716;2022-07-03T06:12:12;3.25;;;1.83;;
24567;SDS011;12731;52.182;8.716;2022-07-03T06:14:38;2.42;;;1.50;;
24567;SDS011;12731;52.182;8.716;2022-07-03T06:17:05;3.03;;;1.73;;
24567;SDS011;12731;52.182;8.716;2022-07-03T06:19:31;3.67;;;1.48;;
24567;SDS011;12731;52.182;8.716;2022-07-03T06:21:58;3.63;;;1.75;;
24567;SDS011;12731;52.182;8.716;2022-07-03T06:24:24;2.63;;;1.58;;
24567;SDS011;12731;52.182;8.716;2022-07-03T06:26:51;3.63;;;1.50;;
24567;SDS011;12731;52.182;8.716;2022-07-03T06:29:17;2.70;;;1.70;;
24567;SDS011;12731;52.182;8.716;2022-07-03T06:31:44;2.53;;;1.50;;
24567;SDS011;12731;52.182;8.716;2022-07-03T06:34:11;3.90;;;1.80;;
24567;SDS011;12731;52.182;8.716;2022-07-03T06:36:37;2.22;;;1.50;;
24567;SDS011;12731;52.182;8.716;2022-07-03T06:39:03;4.25;;;1.50;;
24567;SDS011;12731;52.182;8.716;2022-07-03T06:41:30;2.60;;;1.42;;
24567;SDS011;12731;52.182;8.716;2022-07-03T06:43:57;4.70;;;1.60;;
24567;SDS011;12731;52.182;8.716;2022-07-03T06:46:23;3.25;;;1.40;;
24567;SDS011;12731;52.182;8.716;2022-07-03T06:48:50;2.22;;;1.40;;
24567;SDS011;12731;52.182;8.716;2022-07-03T06:51:16;3.05;;;1.50;;
24567;SDS011;12731;52.182;8.716;2022-07-03T06:53:43;3.88;;;1.50;;
24567;SDS011;12731;52.182;8.716;2022-07-03T06:56:09;2.45;;;1.40;;
24567;SDS011;12731;52.182;8.716;2022-07-03T06:58:36;2.90;;;1.20;;
24567;SDS011;12731;52.182;8.716;2022-07-03T07:01:02;3.33;;;1.40;;
24567;SDS011;12731;52.182;8.716;2022-07-03T07:03:29;5.88;;;1.40;;
24567;SDS011;12731;52.182;8.716;2022-07-03T07:05:56;2.08;;;1.50;;
24567;SDS011;12731;52.182;8.716;2022-07-03T07:08:22;1.35;;;1.15;;
24567;SDS011;12731;52.182;8.716;2022-07-03T07:10:49;2.22;;;1.30;;
24567;SDS011;12731;52.182;8.716;2022-07-03T07:13:15;3.00;;;1.50;;
24567;SDS011;12731;52.182;8.716;2022-07-03T07:15:42;2.58;;;1.35;;
24567;SDS011;12731;52.182;8.716;2022-07-03T07:18:08;2.42;;;1.35;;
24567;SDS011;12731;52.182;8.716;2022-07-03T07:20:35;1.55;;;1.40;;
24567;SDS011;12731;52.182;8.716;2022-07-03T07:23:01;3.63;;;1.42;;
24567;SDS011;12731;52.182;8.716;2022-07-03T07:25:28;2.33;;;1.27;;
24567;SDS011;12731;52.182;8.716;2022-07-03T07:27:54;2.15;;;1.40;;
24567;SDS011;12731;52.182;8.716;2022-07-03T07:30:21;2.58;;;1.70;;
24567;SDS011;12731;52.182;8.716;2022-07-03T07:32:47;2.10;;;1.13;;
24567;SDS011;12731;52.182;8.716;2022-07-03T07:35:19;2.97;;;1.55;;
24567;SDS011;12731;52.182;8.716;2022-07-03T07:37:46;2.78;;;1.30;;
24567;SDS011;12731;52.182;8.716;2022-07-03T07:40:14;1.95;;;1.70;;
24567;SDS011;12731;52.182;8.716;2022-07-03T07:42:41;3.08;;;1.20;;
24567;SDS011;12731;52.182;8.716;2022-07-03T07:45:09;1.67;;;1.17;;
24567;SDS011;12731;52.182;8.716;2022-07-03T07:47:36;2.47;;;0.98;;
24567;SDS011;12731;52.182;8.716;2022-07-03T07:50:03;2.85;;;1.20;;
24567;SDS011;12731;52.182;8.716;2022-07-03T07:52:30;2.22;;;1.38;;
24567;SDS011;12731;52.182;8.716;2022-07-03T07:54:57;1.85;;;1.25;;
24567;SDS011;12731;52.182;8.716;2022-07-03T07:57:23;3.75;;;1.30;;
24567;SDS011;12731;52.182;8.716;2022-07-03T07:59:50;1.85;;;1.00;;
24567;SDS011;12731;52.182;8.716;2022-07-03T08:02:17;2.25;;;1.30;;
24567;SDS011;12731;52.182;8.716;2022-07-03T08:05:02;5.05;;;1.15;;
24567;SDS011;12731;52.182;8.716;2022-07-03T08:07:53;2.67;;;1.10;;
24567;SDS011;12731;52.182;8.716;2022-07-03T08:10:20;2.40;;;1.05;;
24567;SDS011;12731;52.182;8.716;2022-07-03T08:12:46;1.95;;;0.93;;
24567;SDS011;12731;52.182;8.716;2022-07-03T08:15:13;1.80;;;0.90;;
24567;SDS011;12731;52.182;8.716;2022-07-03T08:17:39;1.63;;;1.10;;
24567;SDS011;12731;52.182;8.716;2022-07-03T08:20:06;2.60;;;1.10;;
24567;SDS011;12731;52.182;8.716;2022-07-03T08:22:33;1.77;;;0.90;;
24567;SDS011;12731;52.182;8.716;2022-07-03T08:24:59;1.70;;;0.90;;
24567;SDS011;12731;52.182;8.716;2022-07-03T08:27:26;1.42;;;1.08;;
24567;SDS011;12731;52.182;8.716;2022-07-03T08:29:52;1.92;;;1.13;;
24567;SDS011;12731;52.182;8.716;2022-07-03T08:32:19;3.45;;;1.27;;
24567;SDS011;12731;52.182;8.716;2022-07-03T08:34:46;0.82;;;0.82;;
24567;SDS011;12731;52.182;8.716;2022-07-03T08:37:13;2.63;;;0.93;;
24567;SDS011;12731;52.182;8.716;2022-07-03T08:39:39;1.63;;;0.70;;
24567;SDS011;12731;52.182;8.716;2022-07-03T08:42:06;1.30;;;0.95;;
24567;SDS011;12731;52.182;8.716;2022-07-03T08:44:35;3.83;;;0.90;;
24567;SDS011;12731;52.182;8.716;2022-07-03T08:47:03;3.05;;;0.80;;
24567;SDS011;12731;52.182;8.716;2022-07-03T08:49:30;3.58;;;0.80;;
24567;SDS011;12731;52.182;8.716;2022-07-03T08:51:57;3.55;;;0.98;;
24567;SDS011;12731;52.182;8.716;2022-07-03T08:54:26;3.00;;;0.98;;
24567;SDS011;12731;52.182;8.716;2022-07-03T08:56:52;3.08;;;0.70;;
24567;SDS011;12731;52.182;8.716;2022-07-03T08:59:20;1.35;;;0.60;;
24567;SDS011;12731;52.182;8.716;2022-07-03T09:01:47;2.45;;;0.90;;
24567;SDS011;12731;52.182;8.716;2022-07-03T09:04:14;2.20;;;0.70;;
24567;SDS011;12731;52.182;8.716;2022-07-03T09:06:41;0.95;;;0.65;;
24567;SDS011;12731;52.182;8.716;2022-07-03T09:09:08;1.73;;;0.70;;
24567;SDS011;12731;52.182;8.716;2022-07-03T09:11:38;2.47;;;0.90;;
24567;SDS011;12731;52.182;8.716;2022-07-03T09:14:05;0.80;;;0.52;;
24567;SDS011;12731;52.182;8.716;2022-07-03T09:16:36;1.70;;;0.70;;
24567;SDS011;12731;52.182;8.716;2022-07-03T09:19:03;2.40;;;0.80;;
24567;SDS011;12731;52.182;8.716;2022-07-03T09:21:40;2.83;;;0.80;;
24567;SDS011;12731;52.182;8.716;2022-07-03T09:24:08;1.60;;;0.68;;
24567;SDS011;12731;52.182;8.716;2022-07-03T09:26:52;2.30;;;0.93;;
24567;SDS011;12731;52.182;8.716;2022-07-03T09:29:18;1.33;;;0.52;;
24567;SDS011;12731;52.182;8.716;2022-07-03T09:31:53;1.90;;;0.55;;
24567;SDS011;12731;52.182;8.716;2022-07-03T09:34:21;1.05;;;0.60;;
24567;SDS011;12731;52.182;8.716;2022-07-03T09:36:48;2.33;;;0.80;;
24567;SDS011;12731;52.182;8.716;2022-07-03T09:39:29;0.82;;;0.63;;
24567;SDS011;12731;52.182;8.716;2022-07-03T09:42:03;1.92;;;0.80;;
24567;SDS011;12731;52.182;8.716;2022-07-03T09:44:43;2.22;;;0.80;;
24567;SDS011;12731;52.182;8.716;2022-07-03T09:49:48;0.80;;;0.63;;
24567;SDS011;12731;52.182;8.716;2022-07-03T09:52:28;2.63;;;0.70;;
24567;SDS011;12731;52.182;8.716;2022-07-03T09:54:56;1.20;;;0.65;;
24567;SDS011;12731;52.182;8.716;2022-07-03T09:57:26;3.20;;;0.60;;
24567;SDS011;12731;52.182;8.716;2022-07-03T10:00:10;4.60;;;0.85;;
24567;SDS011;12731;52.182;8.716;2022-07-03T10:08:09;4.80;;;0.60;;
24567;SDS011;12731;52.182;8.716;2022-07-03T10:10:42;2.45;;;0.93;;
24567;SDS011;12731;52.182;8.716;2022-07-03T10:13:09;2.22;;;0.80;;
24567;SDS011;12731;52.182;8.716;2022-07-03T10:15:37;1.92;;;0.95;;
24567;SDS011;12731;52.182;8.716;2022-07-03T10:18:05;3.28;;;0.80;;
24567;SDS011;12731;52.182;8.716;2022-07-03T10:20:38;1.02;;;0.70;;
24567;SDS011;12731;52.182;8.716;2022-07-03T10:23:05;2.15;;;0.73;;
24567;SDS011;12731;52.182;8.716;2022-07-03T10:25:31;2.13;;;0.88;;
24567;SDS011;12731;52.182;8.716;2022-07-03T10:27:58;3.15;;;0.70;;
24567;SDS011;12731;52.182;8.716;2022-07-03T10:30:25;2.20;;;0.82;;
24567;SDS011;12731;52.182;8.716;2022-07-03T10:32:52;0.77;;;0.65;;
24567;SDS011;12731;52.182;8.716;2022-07-03T10:35:21;0.82;;;0.70;;
24567;SDS011;12731;52.182;8.716;2022-07-03T10:37:56;1.67;;;0.90;;
24567;SDS011;12731;52.182;8.716;2022-07-03T10:40:38;2.15;;;0.70;;
24567;SDS011;12731;52.182;8.716;2022-07-03T10:43:31;1.75;;;0.60;;
24567;SDS011;12731;52.182;8.716;2022-07-03T10:46:21;2.97;;;0.77;;
24567;SDS011;12731;52.182;8.716;2022-07-03T11:02:18;3.35;;;0.45;;
24567;SDS011;12731;52.182;8.716;2022-07-03T11:07:26;2.50;;;0.70;;
24567;SDS011;12731;52.182;8.716;2022-07-03T11:20:32;1.10;;;0.73;;
24567;SDS011;12731;52.182;8.716;2022-07-03T11:23:05;1.40;;;0.65;;
24567;SDS011;12731;52.182;8.716;2022-07-03T11:28:06;1.25;;;0.60;;
24567;SDS011;12731;52.182;8.716;2022-07-03T11:31:15;2.80;;;0.70;;
24567;SDS011;12731;52.182;8.716;2022-07-03T11:41:21;1.15;;;0.70;;
24567;SDS011;12731;52.182;8.716;2022-07-03T11:43:49;2.58;;;0.77;;
24567;SDS011;12731;52.182;8.716;2022-07-03T11:46:21;4.15;;;0.88;;
24567;SDS011;12731;52.182;8.716;2022-07-03T11:48:49;2.28;;;0.70;;
24567;SDS011;12731;52.182;8.716;2022-07-03T11:51:16;2.70;;;0.90;;
24567;SDS011;12731;52.182;8.716;2022-07-03T11:53:43;1.08;;;0.75;;
24567;SDS011;12731;52.182;8.716;2022-07-03T11:56:10;1.65;;;0.60;;
24567;SDS011;12731;52.182;8.716;2022-07-03T11:58:44;1.73;;;0.70;;
24567;SDS011;12731;52.182;8.716;2022-07-03T12:03:49;1.67;;;0.65;;
24567;SDS011;12731;52.182;8.716;2022-07-03T12:06:16;1.60;;;0.80;;
24567;SDS011;12731;52.182;8.716;2022-07-03T12:08:43;2.17;;;0.65;;
24567;SDS011;12731;52.182;8.716;2022-07-03T12:11:13;1.13;;;0.70;;
24567;SDS011;12731;52.182;8.716;2022-07-03T12:13:40;1.45;;;0.70;;
24567;SDS011;12731;52.182;8.716;2022-07-03T12:21:13;1.17;;;0.60;;
24567;SDS011;12731;52.182;8.716;2022-07-03T12:23:44;1.23;;;0.70;;
24567;SDS011;12731;52.182;8.716;2022-07-03T12:26:31;1.65;;;0.65;;
24567;SDS011;12731;52.182;8.716;2022-07-03T12:28:59;1.23;;;0.63;;
24567;SDS011;12731;52.182;8.716;2022-07-03T12:31:29;1.30;;;0.65;;
24567;SDS011;12731;52.182;8.716;2022-07-03T12:33:56;1.38;;;0.60;;
24567;SDS011;12731;52.182;8.716;2022-07-03T12:36:25;1.23;;;0.60;;
24567;SDS011;12731;52.182;8.716;2022-07-03T12:38:52;2.13;;;0.70;;
24567;SDS011;12731;52.182;8.716;2022-07-03T12:41:19;2.13;;;0.60;;
24567;SDS011;12731;52.182;8.716;2022-07-03T12:43:47;1.58;;;0.70;;
24567;SDS011;12731;52.182;8.716;2022-07-03T12:46:25;3.33;;;0.77;;
24567;SDS011;12731;52.182;8.716;2022-07-03T12:48:53;2.53;;;0.82;;
24567;SDS011;12731;52.182;8.716;2022-07-03T12:51:40;2.15;;;0.57;;
24567;SDS011;12731;52.182;8.716;2022-07-03T12:54:11;1.45;;;0.73;;
24567;SDS011;12731;52.182;8.716;2022-07-03T12:56:37;1.38;;;0.70;;
24567;SDS011;12731;52.182;8.716;2022-07-03T12:59:05;3.47;;;0.70;;
24567;SDS011;12731;52.182;8.716;2022-07-03T13:04:35;1.17;;;0.70;;
24567;SDS011;12731;52.182;8.716;2022-07-03T13:07:03;1.23;;;0.68;;
24567;SDS011;12731;52.182;8.716;2022-07-03T13:09:35;1.52;;;0.80;;
24567;SDS011;12731;52.182;8.716;2022-07-03T13:12:02;2.80;;;0.70;;
24567;SDS011;12731;52.182;8.716;2022-07-03T13:14:29;2.83;;;0.90;;
24567;SDS011;12731;52.182;8.716;2022-07-03T13:16:56;1.52;;;0.68;;
24567;SDS011;12731;52.182;8.716;2022-07-03T13:19:24;3.00;;;0.90;;
24567;SDS011;12731;52.182;8.716;2022-07-03T13:21:56;1.67;;;0.80;;
24567;SDS011;12731;52.182;8.716;2022-07-03T13:24:24;1.08;;;0.70;;
24567;SDS011;12731;52.182;8.716;2022-07-03T13:26:51;3.58;;;0.80;;
24567;SDS011;12731;52.182;8.716;2022-07-03T13:29:20;3.42;;;0.70;;
24567;SDS011;12731;52.182;8.716;2022-07-03T13:31:47;2.72;;;0.80;;
24567;SDS011;12731;52.182;8.716;2022-07-03T13:34:16;1.13;;;0.70;;
24567;SDS011;12731;52.182;8.716;2022-07-03T13:36:43;2.28;;;0.90;;
24567;SDS011;12731;52.182;8.716;2022-07-03T13:39:09;3.20;;;0.75;;
24567;SDS011;12731;52.182;8.716;2022-07-03T13:41:36;2.40;;;0.80;;
24567;SDS011;12731;52.182;8.716;2022-07-03T13:44:03;1.60;;;1.10;;
24567;SDS011;12731;52.182;8.716;2022-07-03T13:46:30;3.83;;;0.80;;
24567;SDS011;12731;52.182;8.716;2022-07-03T13:48:57;3.20;;;0.80;;
24567;SDS011;12731;52.182;8.716;2022-07-03T13:51:24;1.77;;;0.77;;
24567;SDS011;12731;52.182;8.716;2022-07-03T13:53:54;3.33;;;1.05;;
24567;SDS011;12731;52.182;8.716;2022-07-03T13:56:21;5.95;;;1.00;;
24567;SDS011;12731;52.182;8.716;2022-07-03T13:58:48;3.90;;;0.93;;
24567;SDS011;12731;52.182;8.716;2022-07-03T14:01:17;1.92;;;0.88;;
24567;SDS011;12731;52.182;8.716;2022-07-03T14:03:45;1.92;;;0.90;;
24567;SDS011;12731;52.182;8.716;2022-07-03T14:06:12;1.25;;;0.98;;
24567;SDS011;12731;52.182;8.716;2022-07-03T14:08:40;1.10;;;0.70;;
24567;SDS011;12731;52.182;8.716;2022-07-03T14:11:07;2.38;;;0.90;;
24567;SDS011;12731;52.182;8.716;2022-07-03T14:13:34;1.67;;;1.20;;
24567;SDS011;12731;52.182;8.716;2022-07-03T14:16:00;2.80;;;0.90;;
24567;SDS011;12731;52.182;8.716;2022-07-03T14:18:27;1.73;;;1.10;;
24567;SDS011;12731;52.182;8.716;2022-07-03T14:20:55;2.65;;;1.30;;
24567;SDS011;12731;52.182;8.716;2022-07-03T14:23:21;1.85;;;0.90;;
24567;SDS011;12731;52.182;8.716;2022-07-03T14:25:48;2.33;;;0.85;;
24567;SDS011;12731;52.182;8.716;2022-07-03T14:28:15;2.22;;;1.10;;
24567;SDS011;12731;52.182;8.716;2022-07-03T14:31:00;2.72;;;0.98;;
24567;SDS011;12731;52.182;8.716;2022-07-03T14:33:45;2.50;;;1.05;;
24567;SDS011;12731;52.182;8.716;2022-07-03T14:36:13;3.83;;;1.10;;
24567;SDS011;12731;52.182;8.716;2022-07-03T14:39:00;3.63;;;1.20;;
24567;SDS011;12731;52.182;8.716;2022-07-03T14:41:27;1.92;;;1.02;;
24567;SDS011;12731;52.182;8.716;2022-07-03T14:43:54;3.25;;;1.02;;
24567;SDS011;12731;52.182;8.716;2022-07-03T14:46:20;2.13;;;0.90;;
24567;SDS011;12731;52.182;8.716;2022-07-03T14:48:47;3.20;;;1.20;;
24567;SDS011;12731;52.182;8.716;2022-07-03T14:51:13;3.28;;;1.30;;
24567;SDS011;12731;52.182;8.716;2022-07-03T14:53:40;3.15;;;1.17;;
24567;SDS011;12731;52.182;8.716;2022-07-03T14:56:08;3.00;;;1.15;;
24567;SDS011;12731;52.182;8.716;2022-07-03T14:58:38;3.72;;;1.50;;
24567;SDS011;12731;52.182;8.716;2022-07-03T15:01:05;4.45;;;1.35;;
24567;SDS011;12731;52.182;8.716;2022-07-03T15:03:33;2.30;;;1.20;;
24567;SDS011;12731;52.182;8.716;2022-07-03T15:06:01;5.10;;;1.33;;
24567;SDS011;12731;52.182;8.716;2022-07-03T15:14:07;2.33;;;1.23;;
24567;SDS011;12731;52.182;8.716;2022-07-03T15:16:35;4.47;;;1.20;;
24567;SDS011;12731;52.182;8.716;2022-07-03T15:19:02;5.80;;;1.27;;
24567;SDS011;12731;52.182;8.716;2022-07-03T15:21:29;2.92;;;1.20;;
24567;SDS011;12731;52.182;8.716;2022-07-03T15:24:01;1.73;;;1.17;;
24567;SDS011;12731;52.182;8.716;2022-07-03T15:26:29;5.05;;;1.10;;
24567;SDS011;12731;52.182;8.716;2022-07-03T15:29:00;5.53;;;1.08;;
24567;SDS011;12731;52.182;8.716;2022-07-03T15:31:28;2.83;;;1.30;;
24567;SDS011;12731;52.182;8.716;2022-07-03T15:33:55;4.22;;;1.30;;
24567;SDS011;12731;52.182;8.716;2022-07-03T15:36:23;3.95;;;1.20;;
24567;SDS011;12731;52.182;8.716;2022-07-03T15:38:58;3.67;;;1.17;;
24567;SDS011;12731;52.182;8.716;2022-07-03T15:41:34;3.90;;;1.23;;
24567;SDS011;12731;52.182;8.716;2022-07-03T15:44:15;3.72;;;1.00;;
24567;SDS011;12731;52.182;8.716;2022-07-03T15:49:38;2.80;;;1.17;;
24567;SDS011;12731;52.182;8.716;2022-07-03T15:52:09;2.15;;;1.17;;
24567;SDS011;12731;52.182;8.716;2022-07-03T15:57:33;2.92;;;1.10;;
24567;SDS011;12731;52.182;8.716;2022-07-03T16:00:11;3.13;;;1.20;;
24567;SDS011;12731;52.182;8.716;2022-07-03T16:05:13;1.58;;;0.85;;
24567;SDS011;12731;52.182;8.716;2022-07-03T16:07:43;1.15;;;0.90;;
24567;SDS011;12731;52.182;8.716;2022-07-03T16:10:10;3.75;;;0.90;;
24567;SDS011;12731;52.182;8.716;2022-07-03T16:12:37;2.75;;;1.02;;
24567;SDS011;12731;52.182;8.716;2022-07-03T16:15:05;3.28;;;1.10;;
24567;SDS011;12731;52.182;8.716;2022-07-03T16:17:32;2.85;;;1.08;;
24567;SDS011;12731;52.182;8.716;2022-07-03T16:20:01;2.92;;;1.00;;
24567;SDS011;12731;52.182;8.716;2022-07-03T16:22:29;1.60;;;0.90;;
24567;SDS011;12731;52.182;8.716;2022-07-03T16:25:00;3.35;;;1.00;;
24567;SDS011;12731;52.182;8.716;2022-07-03T16:27:28;1.77;;;0.80;;
24567;SDS011;12731;52.182;8.716;2022-07-03T16:29:55;2.08;;;0.75;;
24567;SDS011;12731;52.182;8.716;2022-07-03T16:32:26;8.25;;;1.40;;